Cherry Point, North Carolina
Current Conditions -  °F | °C
As of 1:54 AM on Sunday 26 Oct 2014 (Local Time) from KNKT Reporting Station
Clear Clear  
Wind Chill: 12°   Ceiling: Unl
Heat Index: 12°   Visibility: 10mi
Dew Point:   Wind: 8mph
Humidity: 80%   Direction: 230°SW
Pressure: 29.85"   Gusts: NA
Location:  34.9°N, 76.88°W
Report Text: KNKT 260554Z AUTO 23007KT 10SM CLR 12/08 A2985 RMK AO2 SLP103 T01170083 10150 20111 56021 $
Loading
Personal Weather Stations






























Interactive Weather Map
Tropical Storm Tracking
New forecast layout! Learn more

10-Day Weather Forecast

Advertisements
Track Severe Weather on mobile